Weather at York Airport

Public forecast

Using degrees Celsius for public forecast. Weather courtesy of forecast.io.

Closest aviation weather report (METAR) to York Airport

Closest report is RAAF Base Pearce, 41.6 nm (77.0 km) WNW. Retrieved 2022/08/19 11:00 UTC (17 minutes ago):

YPEA 191100Z AUTO 21004KT 9999 // OVC044 14/11 Q1029

Closest aviation forecast (TAF) to York Airport

Closest forecast is RAAF Base Pearce, 41.6 nm (77.0 km) WNW. Retrieved 2022/08/19 05:36 UTC (6 hours ago):

TAF YPEA 190405Z 1905/1918 23007KT 9999 FEW025 BKN040 FM191100 VRB03KT 9999 FEW030